Kelly USA, Texas
Current Conditions -  °F | °C
As of 3:58 PM on Thursday 18 Dec 2014 (Local Time) from KSKF Reporting Station
Scattered Clouds Scattered Clouds  
Wind Chill: 67°   Ceiling: Unl
Heat Index: 67°   Visibility: 10mi
Dew Point: 60°   Wind: 9mph
Humidity: 77%   Direction: 60°ENE
Pressure: 30"   Gusts: NA
Location:  29.3853°N, 98.6099°W
Report Text: KSKF 182158Z AUTO 06008KT 10SM SCT017 SCT037 20/15 A3000 RMK AO2 SLP156 T01960154 $
Loading
Personal Weather Stations






























Interactive Weather Map New forecast layout! Learn more

10-Day Weather Forecast

Advertisements
Track Severe Weather on mobile